Time;durP1;ratioP1;P1;durP2;ratioP2;P2;SDS_P1;SDS_P2;PMS_P1;PMS_P2;Temp;Humidity;BMP_temperature;BMP_pressure;BME280_temperature;BME280_humidity;BME280_pressure;Samples;Min_cycle;Max_cycle;Signal;HPM_P1;HPM_P2
2023/08/13 00:03:27;;;;;;;11.00;6.80;;;;;;;19.31;68.82;99248.53;223475;181;147161;-62
2023/08/13 00:08:31;;;;;;;11.40;6.20;;;;;;;19.30;68.90;99251.52;223375;181;139924;-62
2023/08/13 00:13:34;;;;;;;12.00;6.40;;;;;;;19.30;68.86;99249.98;223471;181;137658;-64
2023/08/13 00:18:37;;;;;;;11.30;7.20;;;;;;;19.29;68.77;99250.10;223446;181;148908;-66
2023/08/13 00:23:40;;;;;;;15.30;6.60;;;;;;;19.24;68.70;99258.38;223355;181;138607;-66
2023/08/13 00:28:44;;;;;;;14.00;7.30;;;;;;;19.19;69.03;99261.38;223383;181;137501;-62
2023/08/13 00:33:47;;;;;;;14.00;7.30;;;;;;;19.10;69.11;99258.35;223462;181;147745;-67
2023/08/13 00:38:50;;;;;;;10.10;6.20;;;;;;;19.03;69.24;99258.01;223470;182;139193;-65
2023/08/13 00:43:54;;;;;;;9.70;6.20;;;;;;;18.98;69.66;99262.20;223414;182;138580;-64
2023/08/13 00:48:58;;;;;;;11.20;6.70;;;;;;;19.00;69.60;99261.30;223403;181;147827;-65
2023/08/13 00:54:03;;;;;;;12.20;7.20;;;;;;;18.98;69.35;99261.88;223396;181;140554;-63
2023/08/13 00:59:06;;;;;;;13.10;7.30;;;;;;;18.92;69.42;99275.52;223549;181;138585;-63
2023/08/13 01:04:09;;;;;;;13.50;7.40;;;;;;;18.92;69.65;99275.54;223497;182;147628;-67
2023/08/13 01:09:40;;;;;;;14.10;7.40;;;;;;;18.91;69.88;99274.68;223409;181;139540;-64
2023/08/13 01:15:04;;;;;;;13.00;7.90;;;;;;;18.85;70.01;99274.55;223431;181;137565;-64
2023/08/13 01:20:08;;;;;;;12.60;6.70;;;;;;;18.79;70.08;99278.40;223389;181;147779;-65
2023/08/13 01:25:12;;;;;;;11.20;6.60;;;;;;;18.73;70.30;99286.13;223535;182;139455;-66
2023/08/13 01:30:20;;;;;;;11.40;6.80;;;;;;;18.74;70.45;99284.04;223349;182;140717;-64
2023/08/13 01:35:25;;;;;;;10.60;6.80;;;;;;;18.75;70.49;99287.75;223414;181;147771;-66
2023/08/13 02:27:07;;;;;;;9.10;6.20;;;;;;;19.26;69.61;99287.83;221695;193;666214;-67
2023/08/13 02:32:11;;;;;;;9.20;6.00;;;;;;;19.22;69.69;99288.95;222923;186;136563;-66
2023/08/13 02:37:15;;;;;;;12.60;6.00;;;;;;;19.21;69.91;99288.13;222955;185;143912;-66
2023/08/13 02:42:18;;;;;;;9.80;5.90;;;;;;;19.11;70.01;99290.06;223021;185;140001;-65
2023/08/13 02:47:24;;;;;;;10.30;5.70;;;;;;;19.07;70.16;99296.25;222889;185;137988;-64
2023/08/13 02:52:28;;;;;;;10.50;6.00;;;;;;;19.08;70.00;99288.98;222969;186;144319;-66
2023/08/13 02:57:32;;;;;;;12.50;6.10;;;;;;;19.10;70.18;99280.89;223121;185;139336;-66
2023/08/13 03:02:45;;;;;;;14.30;6.10;;;;;;;19.06;70.02;99277.65;222947;185;137472;-66
2023/08/13 03:07:48;;;;;;;13.10;6.30;;;;;;;19.00;69.90;99276.45;222845;186;144371;-67
2023/08/13 03:12:51;;;;;;;8.90;6.40;;;;;;;18.92;70.08;99278.23;222964;185;139417;-66
2023/08/13 03:17:55;;;;;;;9.90;6.40;;;;;;;18.86;70.28;99282.54;222965;186;138645;-68
2023/08/13 03:23:00;;;;;;;8.80;5.40;;;;;;;18.86;70.78;99296.43;223094;185;146356;-64
2023/08/13 03:28:03;;;;;;;8.40;6.00;;;;;;;18.90;70.95;99305.00;223228;184;139543;-65
2023/08/13 03:33:07;;;;;;;10.60;5.90;;;;;;;19.03;70.76;99310.26;223134;184;138520;-67
2023/08/13 03:38:10;;;;;;;11.40;6.30;;;;;;;19.10;70.67;99313.38;223170;184;145640;-69
2023/08/13 03:43:14;;;;;;;11.30;6.00;;;;;;;19.10;70.56;99307.48;223296;184;139821;-65
2023/08/13 03:48:17;;;;;;;8.30;5.60;;;;;;;19.03;70.44;99304.86;223297;183;138010;-65
2023/08/13 03:53:24;;;;;;;8.90;6.00;;;;;;;18.96;70.60;99308.30;223308;184;146416;-63
2023/08/13 03:58:31;;;;;;;8.90;5.70;;;;;;;18.89;70.81;99312.27;223265;183;138783;-65
2023/08/13 04:03:43;;;;;;;12.70;5.90;;;;;;;18.88;70.83;99308.98;223221;183;137574;-64
2023/08/13 04:08:47;;;;;;;12.20;5.80;;;;;;;18.94;70.70;99301.45;223575;181;145544;-65
2023/08/13 04:13:50;;;;;;;9.90;5.80;;;;;;;19.01;70.70;99300.27;223450;182;140817;-64
2023/08/13 04:18:54;;;;;;;11.90;5.90;;;;;;;19.02;70.75;99297.48;223394;181;137960;-62
2023/08/13 04:23:58;;;;;;;13.80;5.90;;;;;;;18.99;70.79;99290.37;223369;182;145984;-68
2023/08/13 04:29:02;;;;;;;17.00;6.10;;;;;;;18.98;71.16;99292.27;223331;182;138641;-64
2023/08/13 04:34:05;;;;;;;137.00;108.90;;;;;;;19.01;71.62;99299.70;223526;182;136698;-65
2023/08/13 04:39:09;;;;;;;41.40;35.10;;;;;;;19.07;71.76;99298.76;223353;182;145536;-63
2023/08/13 04:44:13;;;;;;;10.90;7.90;;;;;;;19.15;71.11;99304.88;223345;182;140666;-62
2023/08/13 04:49:16;;;;;;;10.70;6.60;;;;;;;19.21;70.83;99307.38;223407;182;137873;-61
2023/08/13 04:54:19;;;;;;;12.90;6.00;;;;;;;19.26;70.53;99299.70;223448;181;145645;-65
2023/08/13 04:59:23;;;;;;;11.20;6.60;;;;;;;19.31;70.48;99308.38;223288;181;138702;-66
2023/08/13 05:04:26;;;;;;;9.20;6.60;;;;;;;19.55;70.42;99301.06;223494;182;137918;-70
2023/08/13 05:09:31;;;;;;;8.60;5.80;;;;;;;19.89;69.96;99298.97;223361;181;146503;-68
2023/08/13 05:14:35;;;;;;;;;;;;;;;20.07;69.29;99293.24;223434;182;140191;-67
2023/08/13 05:19:38;;;;;;;9.90;5.70;;;;;;;20.13;69.02;99282.16;223504;182;131590;-64
2023/08/13 05:24:42;;;;;;;67.80;59.60;;;;;;;20.21;68.00;99294.55;223469;182;145775;-65
2023/08/13 05:29:46;;;;;;;11.00;6.80;;;;;;;20.28;67.75;99302.38;223462;183;140797;-62
2023/08/13 05:34:49;;;;;;;9.50;5.20;;;;;;;20.47;67.55;99301.40;223392;181;137370;-64
2023/08/13 05:39:53;;;;;;;10.10;5.30;;;;;;;20.69;67.15;99303.52;223519;181;146855;-66
2023/08/13 05:44:56;;;;;;;6.70;4.70;;;;;;;20.81;66.45;99309.89;223429;181;138954;-66
2023/08/13 05:49:59;;;;;;;6.80;4.80;;;;;;;20.84;65.95;99308.91;223504;182;138689;-66
2023/08/13 05:55:03;;;;;;;9.50;5.20;;;;;;;20.93;65.75;99307.04;223480;182;146557;-62
2023/08/13 06:00:10;;;;;;;8.90;4.90;;;;;;;21.05;65.29;99305.34;223335;182;138636;-65
2023/08/13 06:05:16;;;;;;;9.00;5.20;;;;;;;21.15;64.85;99309.37;223527;182;137365;-64
2023/08/13 06:10:20;;;;;;;8.00;5.70;;;;;;;21.21;64.66;99312.52;223478;182;145914;-64
2023/08/13 06:15:23;;;;;;;8.80;4.60;;;;;;;21.31;64.65;99311.23;223319;181;140451;-63
2023/08/13 06:20:30;;;;;;;8.50;4.60;;;;;;;21.42;64.53;99312.97;223508;182;137875;-65
2023/08/13 06:25:33;;;;;;;6.60;3.60;;;;;;;21.50;63.65;99313.22;223411;182;145845;-65
2023/08/13 06:30:37;;;;;;;7.10;4.00;;;;;;;21.58;63.62;99312.16;223374;182;138953;-68
2023/08/13 06:35:44;;;;;;;6.00;3.80;;;;;;;21.69;63.10;99314.43;223509;182;137042;-63
2023/08/13 06:40:47;;;;;;;96.60;86.00;;;;;;;21.80;62.53;99313.69;223380;181;145707;-63
2023/08/13 06:45:50;;;;;;;9.10;7.10;;;;;;;21.89;62.12;99313.61;223376;181;139780;-69
2023/08/13 06:50:55;;;;;;;10.30;6.50;;;;;;;22.03;62.13;99314.19;223488;182;136723;-68
2023/08/13 06:56:01;;;;;;;5.20;3.90;;;;;;;22.16;61.24;99313.55;223407;182;145987;-62
2023/08/13 07:01:05;;;;;;;3.80;2.80;;;;;;;22.28;60.81;99319.91;223449;182;139474;-64
2023/08/13 07:06:09;;;;;;;5.30;3.50;;;;;;;22.37;59.92;99327.96;223547;182;137348;-62
2023/08/13 07:11:12;;;;;;;7.60;4.40;;;;;;;22.48;60.28;99331.02;223373;183;145453;-64
2023/08/13 07:16:16;;;;;;;8.60;5.60;;;;;;;22.60;60.00;99330.78;223531;181;139157;-64
2023/08/13 07:21:20;;;;;;;5.50;3.50;;;;;;;22.76;60.64;99333.57;223569;181;137286;-61
2023/08/13 07:26:23;;;;;;;7.00;4.10;;;;;;;22.94;60.12;99331.58;223409;183;147412;-65
2023/08/13 07:31:26;;;;;;;4.40;3.20;;;;;;;23.12;59.66;99325.45;223340;181;138617;-62
2023/08/13 07:36:30;;;;;;;4.20;3.30;;;;;;;23.32;59.17;99322.53;223482;182;136531;-61
2023/08/13 07:41:43;;;;;;;6.10;2.90;;;;;;;23.51;57.96;99323.66;223431;182;145800;-61
2023/08/13 07:46:50;;;;;;;100.60;79.80;;;;;;;23.72;57.10;99319.59;223385;182;139986;-61
2023/08/13 07:51:54;;;;;;;;;;;;;;;24.00;56.66;99315.51;223545;182;137378;-58
2023/08/13 07:56:57;;;;;;;10.50;7.90;;;;;;;24.20;56.01;99316.96;223430;182;145968;-62
2023/08/13 08:02:03;;;;;;;6.00;4.00;;;;;;;24.39;55.12;99320.13;223481;181;139321;-60
2023/08/13 08:07:06;;;;;;;3.90;2.90;;;;;;;24.54;53.90;99316.75;223389;181;136411;-60
2023/08/13 08:12:09;;;;;;;3.70;2.40;;;;;;;24.68;52.98;99320.89;223236;183;145458;-59
2023/08/13 08:17:13;;;;;;;4.00;2.60;;;;;;;24.80;52.15;99318.61;223465;182;138684;-59
2023/08/13 08:22:16;;;;;;;21.20;17.60;;;;;;;24.87;51.43;99312.68;223417;182;137866;-61
2023/08/13 08:27:27;;;;;;;4.30;3.00;;;;;;;24.95;51.31;99315.01;223358;182;145519;-59
2023/08/13 08:32:31;;;;;;;5.50;2.40;;;;;;;25.03;50.49;99317.54;223266;182;138578;-60
2023/08/13 08:37:35;;;;;;;5.10;2.80;;;;;;;25.08;50.24;99317.44;223319;181;136483;-60
2023/08/13 08:42:41;;;;;;;8.30;2.90;;;;;;;25.18;50.12;99317.02;223373;182;145403;-59
2023/08/13 08:47:45;;;;;;;128.40;101.00;;;;;;;25.25;49.52;99311.67;223270;181;140268;-61
2023/08/13 08:52:49;;;;;;;5.00;4.50;;;;;;;25.32;49.29;99314.83;223421;181;138635;-60
2023/08/13 08:57:54;;;;;;;4.70;3.30;;;;;;;25.37;48.61;99307.83;223295;182;156519;-60
2023/08/13 09:02:59;;;;;;;3.20;2.50;;;;;;;25.41;48.59;99302.45;223323;181;139307;-61
2023/08/13 09:08:10;;;;;;;4.20;2.30;;;;;;;25.45;48.73;99305.78;223315;182;137648;-61
2023/08/13 09:13:17;;;;;;;3.40;2.30;;;;;;;25.53;48.71;99303.25;223374;181;145940;-60
2023/08/13 09:18:20;;;;;;;16.60;14.40;;;;;;;25.59;48.39;99303.27;223271;182;141077;-62
2023/08/13 09:23:24;;;;;;;4.90;2.50;;;;;;;25.59;47.75;99298.29;223241;181;138046;-61
2023/08/13 09:28:27;;;;;;;3.40;2.10;;;;;;;25.64;48.13;99296.27;223316;181;146403;-62
2023/08/13 09:33:32;;;;;;;4.60;1.90;;;;;;;25.71;47.81;99297.76;223369;181;139390;-59
2023/08/13 09:38:36;;;;;;;14.40;12.10;;;;;;;25.78;47.13;99297.67;223343;182;137221;-61
2023/08/13 09:43:39;;;;;;;3.10;2.10;;;;;;;25.88;46.81;99295.77;223405;182;146049;-60
2023/08/13 09:48:43;;;;;;;4.40;2.30;;;;;;;25.95;45.63;99289.95;223370;181;138948;-60
2023/08/13 09:54:14;;;;;;;3.70;2.10;;;;;;;26.10;45.53;99289.96;223280;179;246929;-58
2023/08/13 09:59:17;;;;;;;;;;;;;;;26.29;44.97;99280.68;223274;181;147690;-60
2023/08/13 10:04:22;;;;;;;4.60;2.20;;;;;;;26.45;44.94;99277.12;223361;181;139426;-60
2023/08/13 10:09:26;;;;;;;;;;;;;;;26.58;44.74;99276.28;223355;181;137433;-60
2023/08/13 10:14:30;;;;;;;2.90;2.00;;;;;;;26.79;44.43;99275.92;223265;182;145387;-60
2023/08/13 10:19:37;;;;;;;;;;;;;;;27.01;43.83;99277.84;223250;182;138829;-60
2023/08/13 10:24:42;;;;;;;8.20;4.50;;;;;;;27.23;43.25;99278.73;223327;182;130667;-61
2023/08/13 10:29:45;;;;;;;3.40;2.70;;;;;;;27.47;43.30;99279.81;223265;182;147605;-61
2023/08/13 10:34:54;;;;;;;2.80;2.20;;;;;;;27.72;42.58;99284.40;223225;182;139959;-61
2023/08/13 10:39:57;;;;;;;8.60;4.80;;;;;;;27.92;42.30;99272.88;223234;181;138188;-62
2023/08/13 10:45:05;;;;;;;5.40;2.80;;;;;;;28.16;42.35;99271.88;223316;182;146009;-59
2023/08/13 10:50:27;;;;;;;3.80;2.30;;;;;;;28.34;42.26;99265.86;223379;181;139516;-59
2023/08/13 10:55:41;;;;;;;4.30;2.20;;;;;;;28.45;41.73;99265.38;223375;182;137519;-59
2023/08/13 11:00:44;;;;;;;5.00;2.10;;;;;;;28.54;41.34;99259.23;223286;181;147789;-60
2023/08/13 11:05:49;;;;;;;5.10;1.90;;;;;;;28.72;41.22;99260.11;223431;181;139031;-59
2023/08/13 11:10:53;;;;;;;3.30;1.80;;;;;;;28.94;41.23;99250.92;223413;182;137018;-61
2023/08/13 11:15:56;;;;;;;2.00;1.80;;;;;;;29.10;40.64;99246.92;223280;182;148529;-59
2023/08/13 11:21:00;;;;;;;5.60;2.20;;;;;;;29.24;40.41;99249.50;223287;182;139508;-59
2023/08/13 11:26:05;;;;;;;3.90;2.20;;;;;;;29.40;40.34;99243.67;223414;182;137220;-59
2023/08/13 11:31:08;;;;;;;3.70;1.90;;;;;;;29.57;40.37;99242.99;223356;182;150644;-60
2023/08/13 11:36:12;;;;;;;3.10;2.10;;;;;;;29.71;39.78;99244.52;223321;182;139142;-60
2023/08/13 11:41:15;;;;;;;3.10;2.10;;;;;;;29.89;39.86;99238.35;223393;182;139348;-60
2023/08/13 11:46:18;;;;;;;86.30;77.40;;;;;;;30.06;39.76;99243.31;223456;182;148496;-60
2023/08/13 11:51:25;;;;;;;10.40;6.80;;;;;;;30.12;39.73;99244.05;223278;181;138839;-59
2023/08/13 11:56:38;;;;;;;34.10;30.80;;;;;;;30.18;38.72;99246.92;223254;181;137080;-61
2023/08/13 12:01:41;;;;;;;8.70;6.70;;;;;;;30.21;39.22;99237.92;223313;181;148346;-61
2023/08/13 12:06:46;;;;;;;3.80;3.40;;;;;;;30.33;39.21;99235.26;223429;182;139232;-60
2023/08/13 12:11:52;;;;;;;4.50;2.80;;;;;;;30.35;39.36;99229.04;223141;181;139111;-59
2023/08/13 12:16:56;;;;;;;3.90;2.70;;;;;;;30.46;39.34;99225.94;223386;181;147709;-59
2023/08/13 12:21:59;;;;;;;5.80;2.30;;;;;;;30.63;39.12;99226.52;223283;182;141728;-60
2023/08/13 12:27:03;;;;;;;7.70;2.10;;;;;;;30.73;38.17;99230.67;223326;181;138084;-60
2023/08/13 12:32:06;;;;;;;4.90;2.50;;;;;;;30.72;38.15;99229.24;223285;182;148261;-60
2023/08/13 12:37:09;;;;;;;3.10;2.40;;;;;;;30.67;38.36;99222.02;223233;179;139446;-60
2023/08/13 12:42:13;;;;;;;7.30;2.60;;;;;;;30.66;38.17;99222.05;223267;181;139881;-61
2023/08/13 12:47:25;;;;;;;4.90;2.40;;;;;;;30.83;38.25;99220.25;223291;182;148195;-60
2023/08/13 12:52:30;;;;;;;52.90;43.90;;;;;;;31.00;38.43;99216.44;223394;182;139778;-59
2023/08/13 12:57:33;;;;;;;9.70;8.10;;;;;;;31.12;37.63;99214.20;223323;182;140706;-60
2023/08/13 13:02:36;;;;;;;209.60;177.00;;;;;;;31.24;37.40;99209.14;223269;182;148437;-61
2023/08/13 13:07:40;;;;;;;11.90;9.00;;;;;;;31.35;37.34;99208.55;223296;182;139117;-59
2023/08/13 13:12:44;;;;;;;5.40;3.90;;;;;;;31.42;36.86;99207.17;223301;182;137682;-60
2023/08/13 13:17:58;;;;;;;48.20;43.30;;;;;;;31.50;36.94;99201.55;223228;181;149803;-61
2023/08/13 13:23:02;;;;;;;776.80;651.80;;;;;;;31.63;37.25;99198.30;223266;182;142464;-60
2023/08/13 13:28:06;;;;;;;25.90;22.00;;;;;;;31.72;36.83;99198.41;223400;181;161088;-60
2023/08/13 13:33:09;;;;;;;123.60;109.10;;;;;;;31.77;36.23;99193.57;223072;182;148374;-63
2023/08/13 13:38:13;;;;;;;6.60;5.50;;;;;;;31.93;35.85;99192.95;223299;182;139431;-63
2023/08/13 13:43:17;;;;;;;5.00;2.60;;;;;;;32.01;35.39;99183.61;223385;179;137972;-63
2023/08/13 13:48:20;;;;;;;5.50;3.70;;;;;;;32.06;35.14;99181.86;223220;181;147705;-61
2023/08/13 13:53:24;;;;;;;3.70;2.40;;;;;;;32.15;35.97;99178.61;223340;181;139922;-60
2023/08/13 13:58:27;;;;;;;4.70;2.10;;;;;;;32.24;34.94;99179.88;223370;179;136866;-60
2023/08/13 14:03:30;;;;;;;3.30;1.90;;;;;;;32.30;34.93;99176.46;223263;181;148173;-59
2023/08/13 14:08:33;;;;;;;73.90;65.80;;;;;;;32.35;34.67;99175.33;223307;181;139927;-61
2023/08/13 14:13:37;;;;;;;15.20;13.60;;;;;;;32.37;34.41;99172.79;223315;182;137577;-61
2023/08/13 14:18:40;;;;;;;5.90;3.50;;;;;;;32.41;34.92;99166.91;223339;178;147642;-61
2023/08/13 14:23:43;;;;;;;75.80;67.70;;;;;;;32.43;35.11;99162.23;223091;182;138672;-61
2023/08/13 14:28:46;;;;;;;19.30;14.50;;;;;;;32.40;34.93;99161.52;223332;182;137361;-60
2023/08/13 14:33:49;;;;;;;13.60;10.50;;;;;;;32.39;34.55;99159.07;223216;182;150043;-61
2023/08/13 14:39:01;;;;;;;2.80;2.50;;;;;;;32.30;34.15;99152.77;223172;182;149747;-59
2023/08/13 14:44:04;;;;;;;2.40;2.20;;;;;;;32.16;34.30;99151.56;223308;181;137675;-59
2023/08/13 14:49:07;;;;;;;120.30;108.60;;;;;;;31.97;34.61;99152.70;223252;182;149501;-63
2023/08/13 14:54:11;;;;;;;6.30;5.10;;;;;;;31.72;35.16;99157.48;223048;182;139125;-63
2023/08/13 14:59:14;;;;;;;6.30;3.50;;;;;;;31.48;35.26;99154.83;222968;182;138376;-63
2023/08/13 15:04:18;;;;;;;4.20;3.10;;;;;;;31.27;35.84;99151.48;223190;183;148128;-60
2023/08/13 15:09:33;;;;;;;4.00;2.20;;;;;;;31.06;36.40;99150.41;223121;215;139661;-62
2023/08/13 15:14:36;;;;;;;4.40;2.60;;;;;;;30.87;36.75;99151.84;223122;182;138005;-64
2023/08/13 15:19:40;;;;;;;4.10;2.50;;;;;;;30.70;37.13;99144.41;223182;192;147402;-62
2023/08/13 15:24:43;;;;;;;3.00;1.90;;;;;;;30.55;37.11;99151.20;223049;212;139712;-60
2023/08/13 15:29:46;;;;;;;4.10;2.30;;;;;;;30.43;37.57;99152.01;223065;181;137596;-62
2023/08/13 15:34:49;;;;;;;83.60;73.50;;;;;;;30.32;38.15;99145.69;223388;182;148429;-61
2023/08/13 15:39:52;;;;;;;11.80;8.00;;;;;;;30.22;38.12;99142.58;223241;182;139936;-61
2023/08/13 15:44:56;;;;;;;6.00;4.70;;;;;;;30.12;38.37;99144.84;223302;182;137024;-61
2023/08/13 15:49:59;;;;;;;80.50;66.80;;;;;;;30.04;38.69;99142.52;223332;182;147260;-65
2023/08/13 15:55:03;;;;;;;37.10;33.10;;;;;;;30.01;38.98;99148.15;223257;181;138934;-64
2023/08/13 16:00:06;;;;;;;8.70;7.70;;;;;;;29.99;39.21;99141.02;223301;182;137564;-61
2023/08/13 16:05:14;;;;;;;12.30;10.10;;;;;;;29.92;38.77;99143.84;223250;181;147447;-63
2023/08/13 16:10:18;;;;;;;113.90;96.20;;;;;;;29.89;38.91;99142.37;223377;181;140486;-65
2023/08/13 16:15:22;;;;;;;5.90;4.70;;;;;;;29.95;38.99;99143.63;223239;181;138795;-66
2023/08/13 16:20:25;;;;;;;6.60;3.60;;;;;;;29.89;38.82;99140.94;223278;182;148373;-61
2023/08/13 16:25:28;;;;;;;4.90;3.10;;;;;;;29.83;39.19;99138.56;223342;182;142026;-61
2023/08/13 16:30:31;;;;;;;24.40;21.80;;;;;;;29.78;39.14;99140.35;223169;182;138033;-62
2023/08/13 16:35:35;;;;;;;50.50;44.70;;;;;;;29.72;38.89;99147.09;223108;181;150112;-62
2023/08/13 16:40:38;;;;;;;31.90;23.20;;;;;;;29.66;39.25;99144.65;223236;182;139314;-63
2023/08/13 16:45:42;;;;;;;60.50;45.90;;;;;;;29.64;39.88;99146.59;223169;182;136903;-67
2023/08/13 16:50:45;;;;;;;9.80;7.30;;;;;;;29.60;40.29;99147.95;223164;182;147724;-62
2023/08/13 16:55:48;;;;;;;5.20;3.60;;;;;;;29.54;40.55;99147.99;223124;181;138896;-63
2023/08/13 17:00:51;;;;;;;8.20;5.50;;;;;;;29.45;40.73;99149.73;223149;181;136647;-63
2023/08/13 17:05:55;;;;;;;73.70;62.60;;;;;;;29.35;41.64;99151.12;223175;181;147747;-63
2023/08/13 17:10:58;;;;;;;12.50;10.20;;;;;;;29.22;41.73;99156.37;223263;182;140488;-64
2023/08/13 17:16:04;;;;;;;4.00;3.60;;;;;;;29.13;41.52;99157.73;223187;181;249003;-62
2023/08/13 17:21:07;;;;;;;8.30;4.20;;;;;;;29.08;41.96;99159.00;223101;182;148162;-62
2023/08/13 17:26:10;;;;;;;117.70;96.50;;;;;;;28.93;43.04;99156.29;223068;182;138880;-64
2023/08/13 17:31:14;;;;;;;85.10;72.00;;;;;;;28.82;44.06;99157.36;223241;182;138225;-66
2023/08/13 17:36:17;;;;;;;13.40;10.00;;;;;;;28.71;44.84;99162.29;223110;181;147979;-64
2023/08/13 17:41:20;;;;;;;8.30;4.70;;;;;;;28.57;44.72;99164.93;223063;182;140460;-64
2023/08/13 18:27:08;;;;;;;13.60;4.70;;;;;;;27.04;50.67;99221.66;221628;196;667389;-63
2023/08/13 18:32:20;;;;;;;359.70;317.00;;;;;;;26.85;51.29;99226.28;222988;210;136880;-64
2023/08/13 18:37:24;;;;;;;16.30;13.10;;;;;;;26.77;52.02;99235.77;222889;206;144180;-65
2023/08/13 18:42:27;;;;;;;10.40;5.40;;;;;;;26.71;52.21;99247.77;222871;183;139401;-66
2023/08/13 18:47:30;;;;;;;11.70;5.80;;;;;;;26.62;52.54;99252.22;222993;183;138972;-66
2023/08/13 18:52:34;;;;;;;7.90;5.40;;;;;;;26.52;52.95;99253.48;222979;205;145522;-65
2023/08/13 18:57:38;;;;;;;420.50;341.60;;;;;;;26.40;53.88;99252.90;222997;183;140075;-64
2023/08/13 19:02:41;;;;;;;39.10;33.90;;;;;;;26.28;54.55;99256.20;223052;184;137073;-64
2023/08/13 19:07:45;;;;;;;42.50;32.20;;;;;;;26.18;54.72;99261.79;222913;183;143996;-64
2023/08/13 19:12:48;;;;;;;11.40;8.10;;;;;;;26.10;54.80;99265.02;222878;184;138565;-64
2023/08/13 19:17:52;;;;;;;11.50;4.90;;;;;;;26.03;55.20;99268.77;222933;184;137741;-61
2023/08/13 19:22:55;;;;;;;292.60;245.10;;;;;;;25.92;55.62;99265.79;222994;207;146809;-63
2023/08/13 19:27:58;;;;;;;27.00;19.50;;;;;;;25.86;55.81;99264.87;222834;184;139033;-62
2023/08/13 19:33:02;;;;;;;9.90;7.10;;;;;;;25.78;56.49;99264.95;222888;184;137030;-64
2023/08/13 19:38:06;;;;;;;11.80;8.10;;;;;;;25.70;56.91;99266.77;222956;207;145763;-65
2023/08/13 19:43:09;;;;;;;8.80;5.80;;;;;;;25.63;57.33;99256.55;222812;185;139594;-63
2023/08/13 19:48:13;;;;;;;388.90;340.10;;;;;;;25.56;57.93;99257.77;222840;207;137738;-65
2023/08/13 19:53:16;;;;;;;23.10;18.80;;;;;;;25.50;58.39;99262.36;222969;206;146752;-62
2023/08/13 19:58:22;;;;;;;15.00;7.20;;;;;;;25.42;58.99;99261.63;222886;184;139319;-62
2023/08/13 20:03:25;;;;;;;41.00;30.10;;;;;;;25.33;59.05;99262.97;223068;184;137182;-65
2023/08/13 20:08:28;;;;;;;105.90;85.00;;;;;;;25.23;59.44;99266.84;223139;183;145627;-63
2023/08/13 20:13:31;;;;;;;15.50;8.80;;;;;;;25.14;59.74;99268.55;223107;183;138858;-64
2023/08/13 22:25:33;;;;;;;9.10;5.30;;;;;;;22.31;72.26;99304.60;220727;193;667021;-67
2023/08/13 22:30:37;;;;;;;11.20;4.70;;;;;;;22.31;72.00;99302.58;222817;186;136954;-65
2023/08/13 22:35:49;;;;;;;9.30;5.30;;;;;;;22.41;71.97;99294.21;222856;186;143588;-67
2023/08/13 22:40:53;;;;;;;10.30;5.10;;;;;;;22.55;71.73;99299.07;222713;186;140853;-67
2023/08/13 22:45:56;;;;;;;7.70;5.60;;;;;;;22.68;71.06;99295.85;222797;185;137537;-66
2023/08/13 22:50:59;;;;;;;11.70;5.30;;;;;;;22.79;70.52;99292.55;222923;185;144338;-64
2023/08/13 22:56:03;;;;;;;7.80;5.00;;;;;;;22.87;70.26;99286.92;222898;185;138936;-64
2023/08/13 23:01:06;;;;;;;8.00;5.30;;;;;;;22.94;70.07;99279.89;223203;183;137384;-70
2023/08/13 23:06:10;;;;;;;9.60;4.80;;;;;;;23.02;69.72;99285.89;223159;184;144318;-72
2023/08/13 23:11:13;;;;;;;9.40;4.80;;;;;;;23.11;69.34;99286.42;223347;184;139362;-67
2023/08/13 23:16:16;;;;;;;11.00;4.60;;;;;;;23.19;69.07;99285.23;223255;184;138719;-69
2023/08/13 23:21:24;;;;;;;8.00;5.10;;;;;;;23.23;68.96;99276.52;223206;184;145713;-66
2023/08/13 23:26:43;;;;;;;6.70;5.10;;;;;;;23.23;68.75;99274.98;223218;185;138965;-67
2023/08/13 23:31:47;;;;;;;9.00;4.90;;;;;;;23.21;68.71;99276.19;223114;185;137870;-71
2023/08/13 23:36:50;;;;;;;8.70;5.10;;;;;;;23.21;68.71;99269.86;223110;184;147683;-67
2023/08/13 23:41:54;;;;;;;11.20;4.60;;;;;;;23.21;68.90;99265.72;223083;184;139049;-71
2023/08/13 23:46:58;;;;;;;7.40;4.90;;;;;;;23.23;69.13;99264.02;223148;184;138129;-71
2023/08/13 23:52:02;;;;;;;5.80;4.60;;;;;;;23.27;69.13;99266.39;223340;184;146069;-68
2023/08/13 23:57:07;;;;;;;9.10;4.90;;;;;;;23.33;68.87;99267.17;223369;184;138962;-65
